createdAt,value
2023-03-17T11:56:44.281Z,832.50
2023-03-17T11:57:44.238Z,832.50
2023-03-17T11:58:44.280Z,821.25
2023-03-17T11:59:44.213Z,804.38
2023-03-17T12:00:44.206Z,798.75
2023-03-17T12:22:26.328Z,956.25
2023-03-17T12:23:26.284Z,945.00
2023-03-17T12:24:26.270Z,1023.75
2023-03-17T12:25:26.253Z,1023.75
2023-03-17T12:26:26.213Z,928.13
2023-03-17T12:27:26.242Z,883.13
2023-03-17T12:28:26.202Z,911.25
2023-03-17T12:29:26.197Z,916.88
2023-03-17T12:30:26.156Z,883.13
2023-03-17T12:31:26.185Z,871.88
2023-03-17T12:32:26.261Z,883.13
2023-03-17T12:33:26.114Z,911.25
2023-03-17T12:34:26.120Z,956.25
2023-03-17T12:35:26.100Z,967.50
2023-03-17T12:36:26.076Z,990.00
2023-03-17T12:37:26.073Z,1068.75
2023-03-17T12:38:26.047Z,1119.38
2023-03-17T12:39:26.039Z,1068.75
2023-03-17T12:40:26.377Z,1029.38
2023-03-17T12:41:26.013Z,1035.00
2023-03-17T12:42:26.009Z,905.63
2023-03-17T12:43:26.015Z,945.00
2023-03-17T12:44:25.954Z,973.13
2023-03-17T12:45:25.945Z,956.25
2023-03-17T12:46:26.020Z,984.38
2023-03-17T12:47:25.966Z,978.75
2023-03-17T12:48:25.931Z,916.88
2023-03-17T12:49:25.967Z,905.63
2023-03-17T12:50:25.873Z,900.00
2023-03-17T12:51:25.920Z,922.50
2023-03-17T12:52:25.860Z,995.63
2023-03-17T12:53:25.846Z,1091.25
2023-03-17T12:54:25.871Z,1051.88
2023-03-17T12:55:25.824Z,1299.38
2023-03-17T12:56:25.811Z,1310.63
2023-03-17T12:57:25.792Z,1507.50
2023-03-17T12:58:26.505Z,1580.63
2023-03-17T12:59:25.781Z,1417.50
2023-03-17T13:00:25.785Z,1586.25
2023-03-17T13:01:25.789Z,1535.63
2023-03-17T13:02:25.718Z,1558.13
2023-03-17T13:03:25.793Z,1355.63
2023-03-17T13:04:27.139Z,1310.63
2023-03-17T13:05:25.679Z,1620.00
2023-03-17T13:06:25.650Z,1518.75
2023-03-17T13:07:25.654Z,1575.00
2023-03-17T13:08:25.630Z,1417.50
2023-03-17T13:09:25.604Z,1580.63
2023-03-17T13:10:25.598Z,1507.50
2023-03-17T13:11:25.595Z,1726.88
2023-03-17T13:12:25.572Z,1726.88
2023-03-17T13:13:25.600Z,1721.25
2023-03-17T13:14:25.550Z,1951.88
2023-03-17T13:15:25.583Z,1951.88
2023-03-17T13:16:26.709Z,1608.75
2023-03-17T13:17:25.552Z,1558.13
2023-03-17T13:18:25.478Z,1912.50
2023-03-17T13:19:25.533Z,1771.88
2023-03-17T13:20:25.455Z,1811.25
2023-03-17T13:21:25.511Z,1676.25
2023-03-17T13:22:25.497Z,1743.75
2023-03-17T13:23:25.445Z,1636.88
2023-03-17T13:24:25.402Z,1676.25
2023-03-17T13:25:25.415Z,1485.00
2023-03-17T13:26:25.456Z,1096.88
2023-03-17T13:27:25.373Z,1102.50
2023-03-17T13:28:25.368Z,1029.38
2023-03-17T13:29:25.417Z,815.63
2023-03-17T13:30:25.361Z,866.25
2023-03-17T13:31:25.388Z,855.00
2023-03-17T13:32:25.305Z,731.25
2023-03-17T13:35:53.800Z,1057.50
2023-03-17T13:36:53.744Z,877.50
2023-03-17T13:39:17.755Z,945.00
2023-03-17T13:39:56.504Z,1153.13
2023-03-17T13:40:56.514Z,1215.00
2023-03-17T13:41:57.665Z,1350.00
2023-03-17T13:42:56.465Z,1445.63
2023-03-17T13:43:56.464Z,1468.13
2023-03-17T13:44:56.441Z,1507.50
2023-03-17T13:45:56.422Z,1479.38
2023-03-17T13:46:56.539Z,1586.25
2023-03-17T13:47:56.485Z,1636.88
2023-03-17T13:48:56.390Z,1513.13
2023-03-17T13:49:56.362Z,1434.38
2023-03-17T13:50:56.357Z,1535.63
2023-03-17T13:52:00.185Z,1096.88
2023-03-17T13:52:56.344Z,1350.00
2023-03-17T13:53:56.296Z,1170.00
2023-03-17T13:54:56.304Z,1046.25
2023-03-17T13:55:56.304Z,1136.25
2023-03-17T13:56:56.280Z,1096.88
2023-03-17T13:57:56.273Z,1046.25
2023-03-17T13:58:56.238Z,1552.50
2023-03-17T13:59:56.214Z,815.63
2023-03-17T14:00:56.240Z,781.88
2023-03-17T14:01:56.211Z,1271.25
2023-03-17T14:02:56.198Z,1406.25
2023-03-17T14:03:56.183Z,1181.25
2023-03-17T14:04:56.161Z,1012.50
2023-03-17T14:05:56.163Z,759.38
2023-03-17T14:09:51.698Z,894.38
